Time;durP1;ratioP1;P1;durP2;ratioP2;P2;SDS_P1;SDS_P2;PMS_P1;PMS_P2;Temp;Humidity;BMP_temperature;BMP_pressure;BME280_temperature;BME280_humidity;BME280_pressure;Samples;Min_cycle;Max_cycle;Signal;HPM_P1;HPM_P2
2023/01/03 00:00:40;;;;;;;54.95;40.05;;;;;;;8.06;100.00;101445.38;5013386;28;20049;-78
2023/01/03 00:03:05;;;;;;;49.78;40.97;;;;;;;8.78;100.00;101580.69;5010242;28;20053;-76
2023/01/03 00:05:33;;;;;;;49.33;37.42;;;;;;;8.85;100.00;101575.69;5003085;28;20062;-75
2023/01/03 00:07:59;;;;;;;52.30;37.53;;;;;;;8.56;100.00;101542.63;5005007;28;20026;-76
2023/01/03 00:10:24;;;;;;;51.28;41.97;;;;;;;8.06;100.00;101455.84;5005844;28;20092;-77
2023/01/03 00:12:50;;;;;;;53.70;39.13;;;;;;;8.56;100.00;101551.34;5002974;28;20045;-75
2023/01/03 00:15:15;;;;;;;52.67;41.38;;;;;;;7.99;100.00;101432.16;5003737;28;20050;-76
2023/01/03 00:17:41;;;;;;;56.88;43.00;;;;;;;8.78;100.00;101584.22;4994080;28;20042;-76
2023/01/03 00:20:08;;;;;;;49.25;39.65;;;;;;;8.61;100.00;101568.06;5001274;28;20037;-78
2023/01/03 00:22:34;;;;;;;61.45;42.10;;;;;;;8.06;100.00;101461.94;5013600;28;20030;-79
2023/01/03 00:25:00;;;;;;;58.08;41.80;;;;;;;8.56;100.00;101566.16;5007753;28;20053;-79
2023/01/03 00:27:26;;;;;;;61.10;41.97;;;;;;;8.71;100.00;101581.38;5005758;28;20489;-77
2023/01/03 00:29:51;;;;;;;56.45;41.40;;;;;;;8.63;100.00;101571.59;5006280;28;20124;-78
2023/01/03 00:32:17;;;;;;;55.95;42.47;;;;;;;8.67;100.00;101564.72;5004045;28;20042;-78
2023/01/03 00:34:44;;;;;;;58.45;44.42;;;;;;;8.12;100.00;101474.28;5001347;28;20121;-79
2023/01/03 00:37:11;;;;;;;60.28;44.10;;;;;;;8.70;100.00;101575.25;5004159;28;20081;-79
2023/01/03 00:39:36;;;;;;;57.75;40.78;;;;;;;8.59;100.00;101551.47;5000903;28;20054;-79
2023/01/03 00:42:01;;;;;;;56.72;44.00;;;;;;;8.48;100.00;101550.28;5009925;28;20092;-81
2023/01/03 00:44:27;;;;;;;58.00;43.85;;;;;;;8.23;100.00;101506.84;5005389;28;20053;-80
2023/01/03 00:46:52;;;;;;;56.67;41.35;;;;;;;8.08;100.00;101475.03;5009665;28;20465;-78
2023/01/03 00:49:18;;;;;;;63.45;44.08;;;;;;;8.62;100.00;101574.19;5005508;28;20046;-77
2023/01/03 00:51:44;;;;;;;60.40;44.65;;;;;;;8.56;100.00;101569.66;5007607;28;20038;-77
2023/01/03 00:54:11;;;;;;;59.35;44.70;;;;;;;7.98;100.00;101461.75;5009610;28;20046;-78
2023/01/03 00:56:39;;;;;;;59.90;42.70;;;;;;;8.58;100.00;101552.28;5007488;28;20509;-78
2023/01/03 00:59:06;;;;;;;61.13;43.15;;;;;;;8.55;100.00;101543.47;5009799;28;20037;-78
2023/01/03 01:01:34;;;;;;;62.78;45.70;;;;;;;7.76;100.00;101426.28;5006951;28;20823;-79
2023/01/03 01:04:07;;;;;;;57.80;40.80;;;;;;;8.36;100.00;101527.25;5007941;28;20053;-78
2023/01/03 01:06:37;;;;;;;57.63;42.57;;;;;;;7.73;100.00;101426.22;5007501;28;20050;-79
2023/01/03 01:09:05;;;;;;;56.83;42.05;;;;;;;7.84;100.00;101439.56;5018033;28;20112;-80
2023/01/03 01:11:31;;;;;;;58.25;43.13;;;;;;;8.31;100.00;101531.50;5007590;28;20560;-79
2023/01/03 01:13:57;;;;;;;60.75;44.65;;;;;;;8.20;100.00;101525.06;5007683;28;20025;-80
2023/01/03 01:16:28;;;;;;;59.28;42.50;;;;;;;7.63;100.00;101407.63;4996689;28;20145;-77
2023/01/03 01:18:54;;;;;;;57.30;40.78;;;;;;;7.45;100.00;101390.59;5005976;28;20110;-78
2023/01/03 01:21:29;;;;;;;63.00;44.58;;;;;;;7.66;100.00;101420.78;5004764;28;20502;-79
2023/01/03 01:23:54;;;;;;;58.78;40.90;;;;;;;8.34;100.00;101538.53;5005935;28;20077;-79
2023/01/03 01:26:22;;;;;;;58.60;42.35;;;;;;;8.34;100.00;101534.19;5004617;28;20164;-80
2023/01/03 01:28:50;;;;;;;61.60;43.33;;;;;;;7.53;100.00;101406.47;5009307;28;20038;-78
2023/01/03 01:31:19;;;;;;;48.38;38.10;;;;;;;8.10;100.00;101505.63;5005143;28;20045;-80
2023/01/03 01:33:45;;;;;;;59.53;42.38;;;;;;;7.50;100.00;101386.38;5007395;28;20049;-80
2023/01/03 01:36:22;;;;;;;58.58;40.53;;;;;;;7.44;100.00;101390.53;5009538;28;20050;-81
2023/01/03 01:38:54;;;;;;;54.10;41.35;;;;;;;7.62;100.00;101443.31;5000383;28;20050;-80
2023/01/03 01:46:49;;;;;;;67.55;45.88;;;;;;;7.79;100.00;101509.09;5001099;28;20580;-80
2023/01/03 01:49:21;;;;;;;67.22;45.85;;;;;;;7.85;100.00;101522.34;5003494;28;20045;-81
2023/01/03 01:51:46;;;;;;;70.28;47.63;;;;;;;7.08;100.00;101396.47;5003008;28;20049;-80
2023/01/03 01:54:12;;;;;;;56.92;43.38;;;;;;;7.71;100.00;101503.66;5001664;28;20041;-80
2023/01/03 01:56:43;;;;;;;62.00;48.55;;;;;;;7.65;100.00;101492.13;5004383;28;20041;-78
2023/01/03 01:59:10;;;;;;;63.60;46.03;;;;;;;7.23;100.00;101383.84;5005188;28;20037;-80
2023/01/03 02:01:37;;;;;;;63.42;44.28;;;;;;;7.71;100.00;101480.13;5006166;28;20230;-77
2023/01/03 02:04:10;;;;;;;58.22;45.88;;;;;;;7.66;100.00;101491.31;5009090;28;20050;-78
2023/01/03 02:06:37;;;;;;;;;;;;;;;7.72;100.00;101512.38;5002991;28;20226;-77
2023/01/03 02:09:02;;;;;;;62.60;43.28;;;;;;;7.58;100.00;101480.59;5004358;28;19932;-77
2023/01/03 02:11:45;;;;;;;62.58;46.63;;;;;;;7.66;100.00;101520.03;5005774;28;20049;-77
2023/01/03 02:14:33;;;;;;;69.57;45.15;;;;;;;7.71;100.00;101501.03;4997121;28;20104;-77
2023/01/03 02:17:09;;;;;;;61.17;45.05;;;;;;;7.69;100.00;101507.94;4998319;28;20065;-76
2023/01/03 02:20:05;;;;;;;63.92;44.58;;;;;;;7.64;100.00;101511.28;4999901;28;20056;-80
2023/01/03 02:22:56;;;;;;;63.88;44.97;;;;;;;7.28;100.00;101450.16;5003521;28;20520;-80
2023/01/03 02:25:28;;;;;;;69.38;48.60;;;;;;;7.67;100.00;101509.63;4998265;28;20050;-79
2023/01/03 02:28:08;;;;;;;64.65;44.75;;;;;;;7.67;100.00;101501.78;5004388;28;20124;-77
2023/01/03 02:30:44;;;;;;;58.45;43.45;;;;;;;7.63;100.00;101506.88;5005122;28;20041;-76
2023/01/03 02:33:30;;;;;;;57.45;45.13;;;;;;;7.51;100.00;101510.00;5002044;28;20087;-77
2023/01/03 02:36:28;;;;;;;67.70;47.13;;;;;;;7.46;100.00;101502.03;4999359;28;20129;-77
2023/01/03 02:39:22;;;;;;;61.63;47.03;;;;;;;6.32;100.00;101291.53;4997366;28;20103;-76
2023/01/03 02:42:56;;;;;;;62.50;45.03;;;;;;;6.72;100.00;101360.59;5001067;28;20493;-75
2023/01/03 02:45:05;;;;;;;68.30;46.00;;;;;;;7.00;100.00;101385.81;5001085;28;20045;-78
2023/01/03 02:47:51;;;;;;;56.38;42.10;;;;;;;6.80;100.00;101351.28;4997481;28;20073;-78
2023/01/03 02:50:19;;;;;;;50.50;43.70;;;;;;;6.72;100.00;101361.47;5006345;28;20164;-78
2023/01/03 02:52:49;;;;;;;59.22;42.95;;;;;;;6.54;100.00;101355.69;5000791;28;20025;-79
2023/01/03 02:55:24;;;;;;;53.00;42.05;;;;;;;7.25;100.00;101507.47;5003689;28;20084;-80
2023/01/03 02:57:59;;;;;;;59.40;46.88;;;;;;;6.82;100.00;101416.53;5003138;28;20046;-81
2023/01/03 03:00:29;;;;;;;59.22;42.38;;;;;;;6.85;100.00;101400.97;5002554;28;20622;-79
2023/01/03 03:03:01;;;;;;;63.83;44.22;;;;;;;6.80;100.00;101368.66;4997212;28;20050;-80
2023/01/03 03:05:36;;;;;;;61.30;41.85;;;;;;;7.24;100.00;101482.22;4998732;28;20097;-79
2023/01/03 03:08:01;;;;;;;64.00;42.50;;;;;;;6.70;100.00;101391.84;4999940;28;20038;-77
2023/01/03 03:13:24;;;;;;;60.97;42.15;;;;;;;7.27;100.00;101499.69;5001345;28;20190;-78
2023/01/03 03:16:11;;;;;;;53.90;40.38;;;;;;;7.26;100.00;101508.34;5002041;28;20081;-79
2023/01/03 03:19:00;;;;;;;59.63;40.83;;;;;;;7.31;100.00;101491.13;5002650;28;21685;-77
2023/01/03 03:29:58;;;;;;;48.90;41.83;;;;;;;7.31;100.00;101450.25;4996960;28;20434;-78
2023/01/03 03:32:26;;;;;;;51.28;39.30;;;;;;;6.86;100.00;101413.16;5003356;28;20049;-78
2023/01/03 03:34:55;;;;;;;53.92;38.80;;;;;;;7.06;100.00;101468.59;5000563;28;20050;-77
2023/01/03 03:37:24;;;;;;;53.03;38.85;;;;;;;7.19;100.00;101499.47;5002747;28;20042;-78
2023/01/03 03:45:49;;;;;;;48.03;38.88;;;;;;;6.38;100.00;101346.47;5002469;28;20835;-78
2023/01/03 03:48:22;;;;;;;58.47;39.85;;;;;;;6.52;100.00;101375.59;4996376;28;20068;-77
2023/01/03 03:50:58;;;;;;;46.42;38.63;;;;;;;6.55;100.00;101379.22;5000894;28;20057;-78
2023/01/03 03:53:30;;;;;;;55.95;38.63;;;;;;;6.76;100.00;101412.00;4999145;28;20141;-78
2023/01/03 03:56:01;;;;;;;51.50;37.72;;;;;;;6.95;100.00;101458.72;4999646;28;22418;-77
2023/01/03 03:58:39;;;;;;;53.10;39.20;;;;;;;7.16;100.00;101495.03;5004307;28;20116;-78
2023/01/03 04:01:06;;;;;;;51.53;38.90;;;;;;;6.38;100.00;101348.22;5000790;28;20070;-78
2023/01/03 04:03:32;;;;;;;57.65;37.22;;;;;;;7.18;100.00;101497.69;5007041;28;20138;-81
2023/01/03 04:06:09;;;;;;;48.08;36.78;;;;;;;7.02;100.00;101467.59;5010839;28;20049;-77
2023/01/03 04:08:35;;;;;;;51.80;39.78;;;;;;;7.18;100.00;101488.13;5003966;28;20049;-76
2023/01/03 04:11:06;;;;;;;46.22;34.90;;;;;;;6.76;100.00;101412.00;5011799;28;20038;-76
2023/01/03 04:13:33;;;;;;;50.45;38.60;;;;;;;7.12;100.00;101456.63;5003010;28;20048;-78
2023/01/03 04:15:58;;;;;;;45.83;35.83;;;;;;;6.61;100.00;101346.34;5009971;28;20061;-78
2023/01/03 04:18:24;;;;;;;46.55;36.50;;;;;;;6.95;100.00;101434.31;5005465;28;20085;-78
2023/01/03 04:20:49;;;;;;;53.85;39.50;;;;;;;6.49;100.00;101357.25;5003155;28;20630;-77
2023/01/03 04:23:15;;;;;;;45.25;34.35;;;;;;;6.70;100.00;101363.16;5007177;28;20089;-78
2023/01/03 04:25:40;;;;;;;48.22;36.75;;;;;;;6.50;100.00;101338.16;5007023;28;20042;-79
2023/01/03 04:28:06;;;;;;;45.83;35.70;;;;;;;7.10;100.00;101434.81;5004306;28;20050;-79
2023/01/03 04:30:31;;;;;;;44.22;36.08;;;;;;;6.45;100.00;101326.72;4999239;28;20409;-80
2023/01/03 04:32:56;;;;;;;47.50;37.90;;;;;;;7.13;100.00;101462.72;5004487;28;20060;-79
2023/01/03 04:35:22;;;;;;;46.08;35.85;;;;;;;7.13;100.00;101468.81;5003860;28;20494;-79
2023/01/03 04:37:48;;;;;;;47.30;36.50;;;;;;;6.40;100.00;101352.63;5012508;28;20041;-77
2023/01/03 04:40:14;;;;;;;50.05;34.97;;;;;;;7.09;100.00;101497.38;5006213;28;20042;-80
2023/01/03 04:45:23;;;;;;;50.15;37.83;;;;;;;6.23;100.00;101356.44;4998936;28;20426;-79
2023/01/03 04:47:49;;;;;;;45.33;37.55;;;;;;;6.97;100.00;101503.97;5006339;28;20046;-81
2023/01/03 04:50:14;;;;;;;48.90;36.05;;;;;;;6.98;100.00;101499.69;5005287;28;20030;-80
2023/01/03 04:52:40;;;;;;;52.70;38.65;;;;;;;6.28;100.00;101355.72;5006193;28;20474;-79
2023/01/03 04:55:06;;;;;;;47.45;36.13;;;;;;;6.41;100.00;101379.56;5006257;28;20045;-80
2023/01/03 04:57:31;;;;;;;49.88;37.38;;;;;;;6.91;100.00;101467.28;5000629;28;20378;-79
2023/01/03 04:59:57;;;;;;;49.45;36.25;;;;;;;6.12;100.00;101327.41;5006211;28;20713;-79
2023/01/03 05:02:22;;;;;;;54.10;37.78;;;;;;;7.10;100.00;101494.84;5003529;28;20650;-81
2023/01/03 05:04:48;;;;;;;53.75;37.22;;;;;;;6.44;100.00;101372.75;5004434;28;20038;-77
2023/01/03 05:07:13;;;;;;;46.70;36.00;;;;;;;7.23;100.00;101500.44;4999963;28;20053;-78
2023/01/03 05:09:38;;;;;;;52.22;37.58;;;;;;;7.25;100.00;101510.09;5001123;28;20046;-79
2023/01/03 05:12:04;;;;;;;52.30;35.50;;;;;;;6.43;100.00;101370.97;5009133;28;20506;-80
2023/01/03 05:14:30;;;;;;;55.25;38.17;;;;;;;6.92;100.00;101458.59;5002402;28;20048;-79
2023/01/03 05:16:55;;;;;;;64.35;37.30;;;;;;;7.02;100.00;101511.97;5005118;28;20040;-79
2023/01/03 05:19:20;;;;;;;44.75;37.13;;;;;;;6.61;100.00;101463.69;5004124;28;20103;-80
2023/01/03 05:27:14;;;;;;;45.28;38.08;;;;;;;6.73;100.00;101518.84;5008240;28;20119;-80
2023/01/03 05:29:39;;;;;;;50.15;36.25;;;;;;;6.69;100.00;101520.44;5010709;28;20046;-79
2023/01/03 05:32:05;;;;;;;48.88;38.03;;;;;;;6.46;100.00;101493.63;5006611;28;20556;-78
2023/01/03 05:34:30;;;;;;;44.72;38.63;;;;;;;5.95;100.00;101399.78;5003089;28;20065;-78
2023/01/03 05:36:56;;;;;;;48.20;36.70;;;;;;;5.61;100.00;101351.69;5007090;28;20540;-78
2023/01/03 05:39:21;;;;;;;52.65;41.65;;;;;;;6.66;100.00;101527.31;5004122;28;20062;-81
2023/01/03 05:41:59;;;;;;;49.65;39.78;;;;;;;5.86;100.00;101394.22;5004549;28;20077;-79
2023/01/03 05:44:35;;;;;;;38.22;25.98;;;;;;;6.08;100.00;101395.88;5009200;28;20461;-79
2023/01/03 05:47:03;;;;;;;50.83;39.45;;;;;;;6.76;100.00;101525.03;5006558;28;20046;-77
2023/01/03 05:49:28;;;;;;;50.22;40.47;;;;;;;6.60;100.00;101519.25;5013703;28;20552;-79
2023/01/03 05:51:54;;;;;;;54.38;41.42;;;;;;;5.70;100.00;101382.38;5007026;28;20054;-80
2023/01/03 05:54:20;;;;;;;54.97;40.53;;;;;;;5.91;100.00;101403.06;5009203;28;20053;-79
2023/01/03 05:56:46;;;;;;;57.65;42.13;;;;;;;6.60;100.00;101508.81;5010006;28;20061;-80
2023/01/03 05:59:12;;;;;;;58.20;42.70;;;;;;;6.47;100.00;101510.16;5001540;28;20508;-78
2023/01/03 06:01:38;;;;;;;40.67;26.55;;;;;;;5.79;100.00;101377.47;5008043;28;20029;-78
2023/01/03 06:04:03;;;;;;;38.78;26.92;;;;;;;6.17;100.00;101437.88;5003654;28;20049;-79
2023/01/03 06:06:29;;;;;;;66.20;41.67;;;;;;;6.58;100.00;101523.53;4999380;28;20104;-79
2023/01/03 06:08:55;;;;;;;57.30;42.10;;;;;;;5.87;100.00;101404.66;5002390;28;20101;-79
2023/01/03 06:11:20;;;;;;;51.75;41.90;;;;;;;5.71;100.00;101382.44;5003221;28;20046;-78
2023/01/03 06:13:46;;;;;;;56.67;39.58;;;;;;;6.29;100.00;101479.97;5005079;28;20378;-79
2023/01/03 06:19:03;;;;;;;45.65;27.17;;;;;;;6.27;100.00;101539.00;4961466;28;20042;-79
2023/01/03 06:21:28;;;;;;;55.13;41.95;;;;;;;6.49;100.00;101532.81;5009015;28;20045;-79
2023/01/03 06:23:54;;;;;;;62.28;42.75;;;;;;;6.38;100.00;101509.81;5007279;28;20462;-77
2023/01/03 06:26:22;;;;;;;45.80;31.35;;;;;;;6.17;100.00;101483.91;5006522;28;20133;-79
2023/01/03 06:28:48;;;;;;;51.05;45.15;;;;;;;5.87;100.00;101409.00;5005528;28;20089;-78
2023/01/03 06:31:13;;;;;;;38.38;27.58;;;;;;;5.74;100.00;101425.03;4995201;28;20057;-77
2023/01/03 06:33:39;;;;;;;54.70;43.33;;;;;;;5.92;100.00;101451.72;4993546;28;20050;-76
2023/01/03 06:36:08;;;;;;;50.10;40.40;;;;;;;5.67;100.00;101430.00;4998430;28;20085;-75
2023/01/03 06:38:34;;;;;;;47.05;37.85;;;;;;;5.68;100.00;101421.34;4992352;28;20127;-78
2023/01/03 06:41:00;;;;;;;43.30;29.45;;;;;;;6.52;100.00;101565.94;4996062;28;20041;-76
2023/01/03 06:43:26;;;;;;;44.80;27.75;;;;;;;5.71;100.00;101403.25;5000863;28;20387;-76
2023/01/03 06:54:09;;;;;;;37.15;26.60;;;;;;;6.52;100.00;101558.13;5015410;28;20124;-79
2023/01/03 06:56:35;;;;;;;55.53;41.63;;;;;;;5.68;100.00;101386.63;5004757;28;20889;-79
2023/01/03 06:59:00;;;;;;;57.78;45.22;;;;;;;5.65;100.00;101400.44;5006652;28;20037;-79
2023/01/03 07:01:26;;;;;;;57.65;45.15;;;;;;;6.15;100.00;101490.78;5006304;28;20590;-79
2023/01/03 07:03:52;;;;;;;37.60;27.42;;;;;;;6.31;100.00;101504.38;5004392;28;20041;-80
2023/01/03 07:06:17;;;;;;;38.95;27.63;;;;;;;6.66;100.00;101550.78;4998786;28;20053;-80
2023/01/03 07:08:43;;;;;;;62.30;42.30;;;;;;;5.87;100.00;101403.78;4999326;28;20492;-77
2023/01/03 07:11:08;;;;;;;53.70;41.92;;;;;;;6.78;100.00;101547.69;5004584;28;20076;-78
2023/01/03 07:16:19;;;;;;;47.38;26.63;;;;;;;6.59;100.00;101473.16;4998200;28;20057;-78
2023/01/03 07:18:46;;;;;;;38.35;28.65;;;;;;;6.53;100.00;101427.81;5004513;28;20128;-75
2023/01/03 07:21:11;;;;;;;48.70;33.97;;;;;;;7.87;100.00;101528.50;5006706;28;20128;-75
2023/01/03 07:23:37;;;;;;;57.80;44.92;;;;;;;8.39;100.00;101534.31;5000058;28;20037;-75
2023/01/03 07:26:03;;;;;;;50.85;40.35;;;;;;;10.43;100.00;101512.78;5005062;28;20481;-75
2023/01/03 07:28:29;;;;;;;49.88;39.95;;;;;;;10.41;100.00;101482.13;4997562;28;20033;-75
2023/01/03 07:31:07;;;;;;;83.55;50.75;;;;;;;10.02;100.00;101365.09;4995469;28;20425;-77
2023/01/03 07:33:33;;;;;;;224.23;127.75;;;;;;;9.55;100.00;101384.34;4997689;28;20069;-75
2023/01/03 07:36:05;;;;;;;57.50;47.83;;;;;;;7.78;100.00;101380.19;5005051;28;20060;-73
2023/01/03 07:38:31;;;;;;;59.35;44.55;;;;;;;8.39;100.00;101508.16;5006328;28;20089;-74
2023/01/03 07:40:58;;;;;;;53.58;43.20;;;;;;;7.92;100.00;101411.03;5011662;28;20955;-75
2023/01/03 07:43:36;;;;;;;67.35;43.47;;;;;;;8.21;100.00;101467.56;5001656;28;20474;-77
2023/01/03 07:46:21;;;;;;;58.42;41.72;;;;;;;8.42;100.00;101521.31;5003896;28;20100;-75
2023/01/03 07:48:48;;;;;;;48.85;35.35;;;;;;;8.25;100.00;101468.56;4998358;28;20057;-74
2023/01/03 07:51:15;;;;;;;61.20;41.75;;;;;;;8.52;100.00;101523.38;5014047;28;20042;-75
2023/01/03 07:53:41;;;;;;;78.22;56.45;;;;;;;8.45;100.00;101497.88;5004261;28;20040;-75
2023/01/03 07:56:15;;;;;;;85.82;59.83;;;;;;;8.61;100.00;101512.22;5004384;28;20113;-74
2023/01/03 07:58:42;;;;;;;68.90;46.33;;;;;;;7.96;100.00;101399.81;4997840;28;20029;-75
2023/01/03 08:01:10;;;;;;;89.60;59.38;;;;;;;8.20;100.00;101429.22;5003159;28;20679;-74
2023/01/03 08:03:37;;;;;;;66.68;49.40;;;;;;;8.05;100.00;101402.66;5002863;28;20133;-75
2023/01/03 08:06:05;;;;;;;58.80;44.67;;;;;;;8.16;100.00;101403.84;5002886;28;20403;-77
2023/01/03 08:08:32;;;;;;;50.85;40.90;;;;;;;8.38;100.00;101452.34;5003536;28;20069;-77
2023/01/03 08:13:43;;;;;;;58.05;39.75;;;;;;;7.87;100.00;101400.47;5004895;28;20076;-76
2023/01/03 08:16:11;;;;;;;55.88;40.88;;;;;;;8.35;100.00;101439.19;5000919;28;20050;-76
2023/01/03 08:18:38;;;;;;;40.20;34.97;;;;;;;7.58;100.00;101296.06;5003218;28;20050;-77
2023/01/03 08:21:04;;;;;;;43.63;35.40;;;;;;;8.37;100.00;101400.00;5003204;28;20072;-75
2023/01/03 08:23:30;;;;;;;55.88;37.72;;;;;;;9.15;100.00;101529.25;5002725;28;20116;-76
2023/01/03 08:26:01;;;;;;;44.70;32.08;;;;;;;8.74;100.00;101438.44;5005186;28;20034;-76
2023/01/03 08:28:27;;;;;;;45.72;34.72;;;;;;;9.22;100.00;101525.94;5007090;28;20054;-77
2023/01/03 08:30:52;;;;;;;48.30;35.85;;;;;;;9.15;100.00;101518.78;4999316;28;20076;-77
2023/01/03 08:33:19;;;;;;;38.90;33.45;;;;;;;9.09;100.00;101473.28;4987620;28;20260;-76
2023/01/03 08:35:51;;;;;;;40.33;32.40;;;;;;;8.43;100.00;101361.84;4999291;28;20085;-75
2023/01/03 08:38:29;;;;;;;45.30;32.40;;;;;;;9.33;100.00;101505.25;5003187;28;20073;-75
2023/01/03 08:40:57;;;;;;;40.95;31.23;;;;;;;9.24;100.00;101467.50;5005810;28;20121;-76
2023/01/03 08:43:23;;;;;;;44.63;34.42;;;;;;;8.78;100.00;101360.88;4998199;28;20188;-76
2023/01/03 08:45:49;;;;;;;43.28;31.60;;;;;;;9.39;100.00;101477.47;5010138;28;20305;-78
2023/01/03 08:48:19;;;;;;;40.72;33.28;;;;;;;9.52;100.00;101484.72;5004082;28;20463;-75
2023/01/03 08:50:45;;;;;;;39.00;30.80;;;;;;;9.75;100.00;101493.94;5004972;28;20057;-74
2023/01/03 08:53:12;;;;;;;42.17;32.92;;;;;;;9.37;100.00;101402.31;5001976;28;20051;-75
2023/01/03 08:55:37;;;;;;;43.78;32.05;;;;;;;9.99;100.00;101517.13;5003276;28;20033;-75
2023/01/03 08:58:03;;;;;;;39.10;32.25;;;;;;;9.59;100.00;101421.97;5002710;28;20089;-79
2023/01/03 09:00:28;;;;;;;43.15;33.45;;;;;;;9.71;100.00;101430.06;4995157;28;20058;-80
2023/01/03 09:03:00;;;;;;;38.65;29.70;;;;;;;9.40;100.00;101369.19;5007624;28;20434;-81
2023/01/03 09:05:27;;;;;;;43.25;34.15;;;;;;;10.25;100.00;101487.03;5011401;28;20042;-78
2023/01/03 09:07:53;;;;;;;46.08;32.08;;;;;;;10.10;100.00;101450.94;5005977;28;20084;-81
2023/01/03 09:10:19;;;;;;;35.65;29.77;;;;;;;10.17;100.00;101430.06;5010238;28;20092;-80
2023/01/03 09:12:44;;;;;;;46.65;31.48;;;;;;;10.23;100.00;101444.19;4989552;28;20070;-82
2023/01/03 09:15:10;;;;;;;42.00;33.58;;;;;;;10.38;100.00;101472.47;5005391;28;20092;-76
2023/01/03 09:17:36;;;;;;;45.42;35.42;;;;;;;10.61;100.00;101472.00;5003897;28;20061;-80
2023/01/03 09:20:01;;;;;;;43.58;32.40;;;;;;;9.69;100.00;101317.38;5006077;28;20049;-78
2023/01/03 09:22:27;;;;;;;47.33;31.02;;;;;;;10.57;100.00;101461.41;5000477;28;20091;-80
2023/01/03 09:24:54;;;;;;;37.95;30.33;;;;;;;9.85;100.00;101317.63;5019301;28;20045;-80
2023/01/03 09:27:20;;;;;;;50.60;34.13;;;;;;;10.55;100.00;101430.75;5006868;28;20136;-80
2023/01/03 09:29:47;;;;;;;41.00;31.30;;;;;;;9.82;100.00;101318.47;5012077;28;20095;-80
2023/01/03 09:32:13;;;;;;;42.10;32.15;;;;;;;9.92;100.00;101315.13;5003816;28;20037;-79
2023/01/03 09:34:38;;;;;;;39.25;31.23;;;;;;;10.74;100.00;101429.31;5013109;28;20046;-80
2023/01/03 09:37:04;;;;;;;48.72;34.70;;;;;;;10.85;100.00;101440.00;5006091;28;20054;-79
2023/01/03 09:39:29;;;;;;;49.28;33.90;;;;;;;10.41;100.00;101374.56;5004979;28;20131;-84
2023/01/03 09:44:39;;;;;;;45.85;30.88;;;;;;;10.85;100.00;101426.88;5007097;28;20173;-83
2023/01/03 09:47:05;;;;;;;43.92;33.28;;;;;;;10.44;100.00;101327.38;5007103;28;20093;-82
2023/01/03 09:49:34;;;;;;;41.05;32.33;;;;;;;10.89;100.00;101416.44;5003660;28;20408;-80
2023/01/03 10:03:48;;;;;;;43.53;33.92;;;;;;;11.51;100.00;101425.16;5012755;28;20063;-75
2023/01/03 10:06:39;;;;;;;44.38;35.55;;;;;;;10.88;100.00;101321.88;5003347;28;20088;-77
2023/01/03 10:09:29;;;;;;;60.00;35.83;;;;;;;11.60;100.00;101420.00;4997023;28;20417;-78
2023/01/03 10:12:20;;;;;;;46.90;35.45;;;;;;;11.31;100.00;101411.78;5005002;28;20053;-77
2023/01/03 10:15:14;;;;;;;39.33;31.90;;;;;;;11.34;100.00;101411.78;5005811;28;20057;-77
2023/01/03 10:17:58;;;;;;;;;;;;;;;11.75;100.00;101403.50;5000730;28;20156;-75
2023/01/03 10:20:36;;;;;;;44.03;31.98;;;;;;;11.51;100.00;101349.78;5008523;28;19952;-78
2023/01/03 10:23:05;;;;;;;44.42;36.72;;;;;;;11.30;100.00;101284.75;5010018;28;20061;-78
2023/01/03 10:25:30;;;;;;;40.33;33.83;;;;;;;11.15;100.00;101289.84;5008633;28;20056;-79
2023/01/03 10:28:05;;;;;;;49.33;37.95;;;;;;;11.47;100.00;101298.09;5003368;28;20068;-77
2023/01/03 10:30:56;;;;;;;47.10;37.05;;;;;;;12.27;100.00;101387.41;5008336;28;20228;-77
2023/01/03 10:33:24;;;;;;;47.90;36.75;;;;;;;12.23;100.00;101383.88;5005543;28;20073;-78
2023/01/03 10:35:50;;;;;;;42.88;35.47;;;;;;;12.30;100.00;101358.50;4997572;28;20054;-78
2023/01/03 10:38:17;;;;;;;43.67;32.13;;;;;;;12.59;100.00;101382.41;5007606;28;20096;-76
2023/01/03 10:40:46;;;;;;;43.13;35.90;;;;;;;12.29;100.00;101367.25;5008546;28;20048;-78
2023/01/03 10:43:16;;;;;;;45.75;37.08;;;;;;;12.59;100.00;101375.38;5002063;28;20049;-76
2023/01/03 10:46:04;;;;;;;49.08;36.53;;;;;;;12.60;100.00;101336.78;5001008;28;20053;-78
2023/01/03 10:48:39;;;;;;;48.60;35.90;;;;;;;12.46;100.00;101240.16;5002873;28;20532;-77
2023/01/03 10:51:21;;;;;;;42.65;30.90;;;;;;;13.21;100.00;101334.47;5000228;28;20064;-77
2023/01/03 10:53:49;;;;;;;53.00;32.95;;;;;;;13.43;100.00;101335.44;5001583;28;20458;-78
2023/01/03 10:56:15;;;;;;;46.00;33.47;;;;;;;12.84;100.00;101257.91;5005177;28;20049;-76
2023/01/03 10:58:41;;;;;;;44.70;35.35;;;;;;;13.25;100.00;101233.47;5009154;28;20083;-77
2023/01/03 11:01:19;;;;;;;40.63;32.85;;;;;;;14.13;100.00;101352.28;5005794;28;20522;-77
2023/01/03 11:04:06;;;;;;;43.92;33.00;;;;;;;13.77;100.00;101351.38;5001030;28;20056;-77
2023/01/03 11:06:32;;;;;;;47.17;35.22;;;;;;;13.89;100.00;101324.13;5005482;28;20787;-77
2023/01/03 11:09:02;;;;;;;42.38;33.53;;;;;;;14.28;100.00;101341.75;5006651;28;20095;-78
2023/01/03 11:11:28;;;;;;;46.17;34.33;;;;;;;14.10;100.00;101350.53;5002104;28;20042;-77
2023/01/03 11:14:09;;;;;;;53.17;37.45;;;;;;;13.99;100.00;101317.97;5005850;28;20140;-77
2023/01/03 11:16:35;;;;;;;46.75;37.08;;;;;;;14.19;100.00;101330.28;5010385;28;20038;-75
2023/01/03 11:19:05;;;;;;;53.38;38.97;;;;;;;13.71;100.00;101253.75;5000191;28;20659;-77
2023/01/03 11:21:36;;;;;;;40.35;34.10;;;;;;;14.34;100.00;101333.78;5001104;28;20046;-75
2023/01/03 11:24:04;;;;;;;49.35;35.65;;;;;;;14.34;100.00;101340.84;5003752;28;20053;-76
2023/01/03 11:27:01;;;;;;;53.28;38.60;;;;;;;13.93;100.00;101336.44;5010613;28;20050;-78
2023/01/03 11:29:50;;;;;;;48.08;38.83;;;;;;;13.91;100.00;101314.47;5003172;28;20072;-77
2023/01/03 11:32:22;;;;;;;52.67;40.38;;;;;;;12.97;100.00;101227.22;5001743;28;20196;-76
2023/01/03 11:35:10;;;;;;;40.70;33.75;;;;;;;13.82;100.00;101322.38;5006469;28;20136;-83
2023/01/03 11:37:58;;;;;;;46.72;36.63;;;;;;;13.73;100.00;101336.41;5016588;28;20068;-86
2023/01/03 11:41:08;;;;;;;51.83;34.78;;;;;;;13.86;100.00;101329.38;5006833;28;20068;-84
2023/01/03 11:44:02;;;;;;;51.25;35.83;;;;;;;14.02;100.00;101325.00;4999118;28;20053;-80
2023/01/03 11:46:49;;;;;;;55.05;36.17;;;;;;;13.55;100.00;101323.19;5011620;28;20136;-83
2023/01/03 11:49:39;;;;;;;53.35;37.80;;;;;;;13.54;100.00;101316.16;5019562;28;20056;-86
2023/01/03 11:52:28;;;;;;;46.17;38.40;;;;;;;13.67;100.00;101315.28;5010572;28;20137;-81
2023/01/03 11:55:23;;;;;;;50.63;37.45;;;;;;;13.38;100.00;101294.13;5005489;28;20566;-84
2023/01/03 11:58:10;;;;;;;48.58;35.63;;;;;;;13.58;100.00;101302.97;5002326;28;20580;-86
2023/01/03 12:01:02;;;;;;;53.92;39.60;;;;;;;13.30;100.00;101310.81;4997623;28;20429;-84
2023/01/03 12:03:40;;;;;;;57.78;39.90;;;;;;;13.00;100.00;101247.44;5003200;28;20828;-82
2023/01/03 12:06:20;;;;;;;52.95;41.45;;;;;;;12.93;100.00;101241.25;5005553;28;20042;-87
2023/01/03 12:09:12;;;;;;;54.78;43.17;;;;;;;13.40;100.00;101319.63;5003710;28;20065;-85
2023/01/03 12:11:40;;;;;;;56.70;43.00;;;;;;;13.23;100.00;101300.22;4995567;28;20096;-84
2023/01/03 12:14:23;;;;;;;57.97;40.08;;;;;;;13.36;100.00;101312.56;5003160;28;20046;-85
2023/01/03 12:16:59;;;;;;;52.47;43.85;;;;;;;13.14;100.00;101321.28;5005588;28;20030;-85
2023/01/03 12:19:34;;;;;;;55.33;43.50;;;;;;;12.77;100.00;101194.66;5018783;28;20057;-84
2023/01/03 12:22:14;;;;;;;56.17;41.25;;;;;;;13.18;100.00;101262.41;5004838;28;20810;-86
2023/01/03 12:24:51;;;;;;;64.47;42.38;;;;;;;13.41;100.00;101320.50;5004311;28;20631;-86